Aérodrome :
LOGIN :

S'inscrire | Disclaimer

   EN    FR    IT 

 










Légende :    VFR   VFR Marginal   IFR   IFR Intensif   IFR Très Intensif
Visi : 
Plafond : 
>= 8 km
>= 3000ft
5 à 8 km
1000 à 3000 ft
1500m à 5 km
500 à 1000 ft
800 à 1500m
200 à 500 ft
< 800m
< 200 ft
Symboles :   Orages  Brouillard  Fortes neiges  Fortes précipitations  Vent > 20 kt
SIGMETs :   Divers  Orages  Givrage  Turbulence  Onde Orograph.  Cendres Volcan.







- Altitude de l'aérodrome : 325 ft
- Code IATA : BES
- Voir les cartes d'approche


LFRB - Brest

DERNIER METAR :
  • 151430Z AUTO 34006KT 9999 OVC004 13/12 Q1010 BECMG BKN008

METARs EXPIRÉS :
  • 151400Z AUTO 36007KT 9999 OVC005 13/12 Q1010 TEMPO 4000 BR
  • 151330Z AUTO 35006KT 320V020 9999 OVC007 13/12 Q1010 TEMPO 4000 BR
  • 151300Z AUTO 34006KT 300V010 9999 OVC006 13/12 Q1010 TEMPO 4000 BR
  • 151230Z AUTO 35007KT 320V020 4700 BR BKN004 OVC008 13/12 Q1010 TEMPO OVC005
  • 151200Z AUTO 36007KT 9000 OVC005 12/11 Q1010 TEMPO 4000 BR

TAF TAF LFRB
Valide du 15 à 12h jusqu'au 16 à 18h UTC


151100Z 1512/1618 34007KT 7000 BKN008
TEMPO 1512/1515 4000 BR OVC005
BECMG 1612/1615 BKN045
ATIS : +33 2 98 32 02 71
Pas de NOTAMs connus pour ce terrain.



MET'MAP, la Météo Aéronautique d'un coup d'oeil ! - Copyright ORBIFLY Décembre 2007 - Disclaimer

ORBIFLY MET'MAP TEAM :

Programmation & Développement : Alexandra Zaïnal
Conception & Développement : Baudouin d'Aumeries
Co-Programmation & Développement : Marc-Olivier Méhu
Soutien technique & logistique : Manuel Goepfert

Contact : metmap@orbifly.com




SOURCES & CREDITS :

   NOAA